Henderson, NC

11:55 AM EST on December 28, 2014 (GMT -0500)
The Preserve at Smith Creek | Change Station
CLOSE
Current Station
Personal Weather Station
Location: Wake Forest, NC
Elevation: 456 ft
Nearby Weather Stations

Elev 456 ft 36.08 °N, 78.59 °W | Updated 24 seconds ago

Overcast
Overcast
59.9 °F
Feels Like 59.9 °F
N
0.0
Wind Variable Wind from North
Gusts 2.0 mph

Today
High -- | Low -- °F
--% Chance of Precip.
Yesterday
High -- | Low -- °F
Precip. -- in
7:24 AM 5:06 PM
Waxing Crescent, 49% visible
Pressure 30.04 in
Visibility 10.0 miles
Clouds Overcast 1600 ft
Dew Point 56 °F
Humidity 88%
Rainfall 0.00 in
Snow Depth Not available.
UV 1 out of 12
Pollen 1.40 out of 12
Air Quality Not available.
Flu Activity Not available.
METAR KHNZ 281635Z AUTO 23009KT 10SM OVC016 15/11 A3004 RMK AO2 T01540105

More Conditions Fewer Conditions

Pressure 30.04 in
Visibility 10.0 miles
Clouds Overcast 1600 ft
Dew Point 56 °F
Humidity 88%
Rainfall 0.00 in
Snow Depth Not available.
UV 1 out of 12
Pollen 1.40 out of 12
Air Quality Not available.
Flu Activity Not available.
METAR KHNZ 281635Z AUTO 23009KT 10SM OVC016 15/11 A3004 RMK AO2 T01540105

More Conditions Fewer Conditions

10-Day Weather Forecast

Almanac

Astronomy

Dec. 28, 2014 Rise Set
Actual Time
Civil Twilight
Nautical Twilight
Astronomical Twilight
Moon
Length of Visible Light
Length of Day
Tomorrow will be .
, % of the Moon is Illuminated

Today's Extremes

State Highs State Lows

Community

WunderPhotos

Upload Photos

1,781,344 photos uploaded!

WunderBlogs® & News

Nearby

Air Quality

  Air Quality AQ Index Pollutant
Not available.

Snow Depth

Station Depth Elevation

Earthquake Activity

City Distance Mag. Time & Date
Minimum magnitude displayed is 2.5.

Coastal Water Temperatures

Place Temperature

Nearby Weather Stations